bpm-power.com alexa rank chart, bpm-power.com alexa rank daily changes

bpm-power.com alexa rank chart, bpm-power.com alexa rank daily changes

bpm-power.com
Actual rank:
77 056

RANK HISTORY

Date Rank Diff
2017/05/29 77 056 +654
2017/05/28 76 402 +996
2017/05/27 75 406 -798
2017/05/26 76 204 +1 748
2017/05/25 74 456 -762
2017/05/24 75 218 -149
2017/05/23 75 367 +240
2017/05/22 75 127 +1 353
2017/05/21 73 774 +662
2017/05/20 73 112 -23
2017/05/19 73 135 -1 512
2017/05/18 74 647 -666
2017/05/17 75 313 -2 585
2017/05/16 77 898 +1 321
2017/05/15 76 577 +782
2017/05/14 75 795 -1 394
2017/05/13 77 189 -806
2017/05/12 77 995 -653
2017/05/11 78 648 -1 292
2017/05/10 79 940 -807
2017/05/09 80 747 +871
2017/05/08 79 876 -159
2017/05/07 80 035 +853
2017/05/06 79 182 -686
2017/05/05 79 868 -372
2017/05/04 80 240 +728
2017/05/03 79 512 +494
2017/05/02 79 018 +2 721
2017/05/01 76 297 -539
2017/04/30 76 836 -743
2017/04/29 77 579 -482
2017/04/28 78 061 -1 612
2017/04/27 79 673 +1 220
2017/04/26 78 453 -1 057
2017/04/25 79 510 -75
2017/04/24 79 585 -1 374
2017/04/23 80 959 +102
2017/04/22 80 857 -24
2017/04/21 80 881 -2 637
2017/04/20 83 518 -1 860
2017/04/19 85 378 +2 964
2017/04/18 82 414 +1 806
2017/04/17 80 608 +1 205
2017/04/16 79 403 -1 680
2017/04/15 81 083 -891
2017/04/14 81 974 -2 180
2017/04/13 84 154 +809
2017/04/12 83 345 -1 368
2017/04/11 84 713 +1 117
2017/04/10 83 596 +1 470
2017/04/09 82 126 -776
2017/04/08 82 902 +1 055
2017/04/07 81 847 -1 116
2017/04/06 82 963 -249
2017/04/05 83 212 -91
2017/04/04 83 303 -141
2017/04/03 83 444 -228
2017/04/02 83 672 -2 135
2017/04/01 85 807 +761
2017/03/31 85 046 +517
2017/03/30 84 529

WIDGET FOR YOUR SITE

DOMAINS WITH THE NEAREST RANK

Domain Rank
portaldeangola.com 77 051
hidden4fun.com 77 052
haneenlove.com 77 053
quillpad.in 77 054
abbreviationfinder.org 77 055
bpm-power.com 77 056
scholat.com 77 057
leadergamer.com.tr 77 058
sanygroup.com 77 059
k-tanaka.net 77 060
morefastermac.tech 77 061

DOMAINS WITH THE NEAREST RANK BY TLD .com

Domain Rank
softwareag.com 77 047
42bets10.com 77 048
portaldeangola.com 77 051
hidden4fun.com 77 052
haneenlove.com 77 053
bpm-power.com 77 056
scholat.com 77 057
sanygroup.com 77 059
freesoftonic.com 77 062
giglio.com 77 063
ilounge.com 77 064